Latest Weather Observations for Mackay Racecourse

IDQ60801

Issued at 10:52 pm EST Tuesday 28 January 2020 (issued every 10 minutes, with the page automatically refreshed every 10 minutes)

About weather observations | Map of weather stations | Latest weather observations for QLD | Other Formats
Station Details ID: 033329 Name: OORALEA RACECOURSE (MACKAY TURF CLUB) Lat: -21.17 Lon: 149.15 Height: 10.31 m
Data from the previous 72 hours. | See also: Recent months at Mackay Racecourse
Date/Time
EST
Temp
°C
App
Temp
°C
Dew
Point
°C
Rel
Hum
%
Delta-T
°C
Wind Press
QNH
hPa
Press
MSL
hPa
Rain since
9am
mm
Dir  Spd
km/h
Gust
km/h
Spd
kts
Gust
kts
28/10:30pm 25.5 30.1 24.1 92 1.0 NE 7 11 4 6 - - 8.2
28/10:00pm 25.3 29.0 23.9 92 1.0 NNE 11 22 6 12 - - 8.2
28/09:30pm 25.9 29.6 23.9 89 1.4 ENE 11 19 6 10 - - 7.0
28/09:00pm 26.2 28.9 24.2 89 1.4 ENE 17 24 9 13 - - 6.8
28/08:30pm 25.4 28.3 23.8 91 1.1 ENE 15 28 8 15 - - 6.6
28/08:00pm 26.0 28.4 24.2 90 1.2 ENE 19 28 10 15 - - 6.4
28/07:30pm 26.2 28.3 24.1 88 1.4 E 20 30 11 16 - - 6.2
28/07:00pm 25.9 28.2 24.5 92 1.0 E 20 30 11 16 - - 6.0
28/06:30pm 25.7 28.5 24.3 92 1.0 E 17 24 9 13 - - 4.8
28/06:00pm 26.7 29.6 24.5 88 1.5 E 17 24 9 13 - - 3.4
28/05:30pm 27.1 30.7 24.4 85 1.9 ENE 13 20 7 11 - - 3.4
28/05:00pm 27.1 30.0 24.4 85 1.9 E 17 24 9 13 - - 3.4
28/04:30pm 26.5 29.6 24.2 87 1.6 ENE 15 26 8 14 - - 3.4
28/04:00pm 27.4 31.1 24.5 84 2.0 E 13 20 7 11 - - 3.0
28/03:30pm 26.8 30.7 24.3 86 1.7 ENE 11 19 6 10 - - 3.0
28/03:00pm 27.2 30.9 23.9 82 2.3 ENE 11 17 6 9 - - 3.0
28/02:30pm 27.2 31.8 24.8 87 1.7 NE 9 15 5 8 - - 3.0
28/02:00pm 26.6 31.5 25.2 92 1.0 ENE 9 15 5 8 - - 3.0
28/01:30pm 25.6 28.9 23.8 90 1.2 NNE 13 22 7 12 - - 2.8
28/01:00pm 27.9 31.5 23.7 78 2.9 NNE 11 17 6 9 - - 0.2
28/12:30pm 28.3 32.6 24.3 79 2.8 NE 9 15 5 8 - - 0.2
28/12:00pm 27.9 32.9 24.5 82 2.4 N 6 9 3 5 - - 0.2
28/11:30am 27.3 32.1 24.2 83 2.1 NNW 6 9 3 5 - - 0.2
28/11:00am 26.8 31.7 24.6 88 1.5 NNW 7 11 4 6 - - 0.2
28/10:30am 26.1 31.0 24.3 90 1.2 NNW 6 9 3 5 - - 0.2
28/10:00am 25.8 30.6 24.4 92 1.0 NNW 7 11 4 6 - - 0.2
28/09:30am 25.4 29.8 24.5 95 0.6 NNW 9 15 5 8 - - 0.2
28/09:00am 25.7 30.8 24.7 94 0.7 NE 6 9 3 5 - - 50.4
28/08:30am 25.6 30.7 24.0 91 1.1 NE 4 9 2 5 - - 50.2
28/08:00am 25.3 30.0 24.3 94 0.7 SSE 7 13 4 7 - - 49.8
28/07:30am 24.8 29.9 24.1 96 0.5 SSW 4 11 2 6 - - 49.8
28/07:00am 24.5 28.9 23.8 96 0.5 SW 7 11 4 6 - - 49.4
28/06:30am 24.5 29.6 24.0 97 0.3 SW 4 6 2 3 - - 48.4
28/06:00am 24.3 29.3 23.8 97 0.3 SW 4 6 2 3 - - 48.4
28/05:30am 24.2 28.6 23.5 96 0.5 SW 6 9 3 5 - - 48.4
28/05:00am 24.0 28.4 23.5 97 0.3 N 6 13 3 7 - - 47.2
28/04:30am 24.0 28.4 23.5 97 0.3 NNE 6 11 3 6 - - 43.0
28/04:00am 23.8 28.7 23.1 96 0.5 NNE 2 6 1 3 - - 39.4
28/03:30am 24.3 28.7 23.8 97 0.3 SSW 7 11 4 6 - - 31.6
28/03:00am 24.3 28.8 23.6 96 0.5 SSW 6 9 3 5 - - 31.6
28/02:30am 24.4 28.7 23.7 96 0.5 S 7 11 4 6 - - 31.2
28/02:00am 24.2 29.4 23.5 96 0.5 SSE 2 6 1 3 - - 31.0
28/01:30am 24.5 29.2 24.0 97 0.3 SSE 6 9 3 5 - - 30.6
28/01:00am 24.3 29.7 23.8 97 0.3 WSW 2 7 1 4 - - 26.8
28/12:30am 24.1 29.6 23.4 96 0.5 CALM 0 4 0 2 - - 17.6
28/12:00am 24.2 28.2 23.7 97 0.3 SSE 9 19 5 10 - - 10.2
 
Date/Time
EST
Temp
°C
App
Temp
°C
Dew
Point
°C
Rel
Hum
%
Delta-T
°C
Wind Press
QNH
hPa
Press
MSL
hPa
Rain since
9am
mm
Dir  Spd
km/h
Gust
km/h
Spd
kts
Gust
kts
27/11:30pm 24.2 27.8 23.7 97 0.3 S 11 13 6 7 - - 9.6
27/11:00pm 24.1 27.9 23.4 96 0.5 S 9 13 5 7 - - 9.2
27/10:30pm 24.2 28.0 23.5 96 0.5 S 9 11 5 6 - - 8.6
27/10:00pm 24.2 28.6 23.5 96 0.5 SSE 6 7 3 4 - - 8.2
27/09:30pm 24.4 28.4 23.7 96 0.5 SE 9 11 5 6 - - 8.0
27/09:00pm 24.2 29.6 23.2 94 0.7 CALM 0 2 0 1 - - 7.6
27/08:30pm 24.5 28.9 23.5 94 0.7 NNE 6 7 3 4 - - 7.4
27/08:00pm 24.5 30.1 23.6 95 0.6 CALM 0 6 0 3 - - 7.0
27/07:30pm 24.7 30.1 23.8 95 0.6 N 2 6 1 3 - - 4.0
27/07:00pm 24.8 30.2 23.8 94 0.7 N 2 6 1 3 - - 1.8
27/06:30pm 24.7 28.7 23.1 91 1.1 N 7 11 4 6 - - 1.6
27/06:00pm 25.3 29.1 23.5 90 1.2 NNE 9 15 5 8 - - 1.6
27/05:30pm 26.9 30.3 24.0 84 2.0 E 13 17 7 9 - - 1.6
27/05:00pm 26.9 30.9 23.8 83 2.1 E 9 17 5 9 - - 1.6
27/04:30pm 26.6 31.1 23.9 85 1.9 E 7 13 4 7 - - 1.6
27/04:00pm 26.7 30.5 23.4 82 2.3 E 9 15 5 8 - - 1.4
27/03:30pm 26.6 30.9 23.3 82 2.3 ESE 6 11 3 6 - - 1.4
27/03:00pm 26.4 30.2 23.5 84 2.0 ESE 9 15 5 8 - - 1.2
27/02:30pm 26.2 29.0 23.7 86 1.7 ESE 15 22 8 12 - - 1.2
27/02:00pm 26.3 29.7 24.0 87 1.6 E 13 20 7 11 - - 1.2
27/01:30pm 26.9 30.7 24.0 84 2.0 ENE 11 19 6 10 - - 1.2
27/01:00pm 26.7 31.3 24.7 89 1.4 ENE 9 17 5 9 - - 1.2
27/12:30pm 27.7 31.8 24.5 83 2.2 ENE 11 19 6 10 - - 0.8
27/12:00pm 27.5 31.3 23.5 79 2.7 ENE 9 13 5 7 - - 0.8
27/11:30am 27.4 31.2 23.4 79 2.7 NE 9 15 5 8 - - 0.8
27/11:00am 27.1 31.1 24.4 85 1.9 NE 11 19 6 10 - - 0.8
27/10:30am 26.1 30.4 24.3 90 1.2 NE 9 17 5 9 - - 0.8
27/10:00am 26.9 31.1 24.7 88 1.5 N 11 15 6 8 - - 0.0
27/09:30am 25.9 30.3 23.8 88 1.4 N 7 11 4 6 - - 0.0
27/09:00am 26.8 31.2 24.5 87 1.6 N 9 13 5 7 - - 14.4
27/08:30am 26.8 30.4 24.3 86 1.7 N 13 20 7 11 - - 14.4
27/08:00am 28.0 31.3 23.8 78 2.9 ENE 13 22 7 12 - - 14.4
27/07:30am 26.0 31.3 24.4 91 1.1 SW 4 7 2 4 - - 14.4
27/07:00am 25.3 31.3 24.3 94 0.7 CALM 0 4 0 2 - - 14.4
27/06:30am 24.5 29.1 23.8 96 0.5 SW 6 9 3 5 - - 14.4
27/06:00am 24.3 29.2 23.6 96 0.5 SW 4 7 2 4 - - 14.4
27/05:30am 24.1 29.0 23.6 97 0.3 SW 4 7 2 4 - - 14.4
27/05:00am 24.0 29.2 23.5 97 0.3 SW 2 6 1 3 - - 14.4
27/04:30am 23.9 28.5 23.2 96 0.5 N 4 9 2 5 - - 14.2
27/04:00am 24.0 28.3 23.3 96 0.5 N 6 7 3 4 - - 13.4
27/03:30am 24.0 28.1 23.3 96 0.5 N 7 9 4 5 - - 13.4
27/03:00am 23.9 28.9 23.2 96 0.5 N 2 6 1 3 - - 13.2
27/02:30am 23.9 28.5 23.2 96 0.5 SSE 4 9 2 5 - - 9.4
27/02:00am 24.0 28.2 23.1 95 0.6 SSE 6 9 3 5 - - 9.4
27/01:30am 23.9 28.0 23.0 95 0.6 SSE 6 9 3 5 - - 9.4
27/01:00am 23.9 27.8 23.0 95 0.6 SSE 7 9 4 5 - - 9.4
27/12:30am 24.3 28.1 23.4 95 0.6 SSE 9 13 5 7 - - 9.4
27/12:00am 24.7 28.3 23.8 95 0.6 SSE 11 17 6 9 - - 9.4
 
Date/Time
EST
Temp
°C
App
Temp
°C
Dew
Point
°C
Rel
Hum
%
Delta-T
°C
Wind Press
QNH
hPa
Press
MSL
hPa
Rain since
9am
mm
Dir  Spd
km/h
Gust
km/h
Spd
kts
Gust
kts
26/11:30pm 24.8 30.3 24.1 96 0.5 SSE 2 6 1 3 - - 9.4
26/11:00pm 24.9 29.7 24.2 96 0.5 SSE 6 9 3 5 - - 9.4
26/10:30pm 25.1 30.0 24.4 96 0.5 ESE 6 7 3 4 - - 9.4
26/10:00pm 25.1 30.8 24.4 96 0.5 ESE 2 7 1 4 - - 9.2
26/09:30pm 25.0 30.6 24.3 96 0.5 ESE 2 4 1 2 - - 9.0
26/09:00pm 25.2 30.5 24.3 95 0.6 ESE 4 6 2 3 - - 9.0
26/08:30pm 25.4 31.2 24.5 95 0.6 ESE 2 6 1 3 - - 9.0
26/08:00pm 25.3 31.3 24.3 94 0.7 CALM 0 0 0 0 - - 9.0
26/07:30pm 25.1 30.6 24.1 94 0.7 N 2 11 1 6 - - 8.8
26/07:00pm 25.2 31.2 24.2 94 0.7 CALM 0 0 0 0 - - 8.6
26/06:30pm 25.1 31.0 24.1 94 0.7 CALM 0 0 0 0 - - 8.6
26/06:00pm 25.1 31.0 24.1 94 0.7 CALM 0 0 0 0 - - 8.6
26/05:30pm 25.0 30.9 24.1 95 0.6 CALM 0 4 0 2 - - 8.6
26/05:00pm 25.1 30.3 24.2 95 0.6 N 4 6 2 3 - - 8.2
26/04:30pm 25.0 29.7 24.0 94 0.7 N 6 7 3 4 - - 7.0
26/04:00pm 24.7 28.1 23.3 92 1.0 N 11 17 6 9 - - 7.0
26/03:30pm 25.7 30.4 24.3 92 1.0 ENE 7 11 4 6 - - 7.0
26/03:00pm 25.5 30.3 24.1 92 1.0 ENE 6 9 3 5 - - 7.0
26/02:30pm 25.3 29.9 24.1 93 0.8 ENE 7 11 4 6 - - 6.8
26/02:00pm 24.9 30.7 23.9 94 0.7 CALM 0 0 0 0 - - 6.2
26/01:30pm 25.2 28.6 24.0 93 0.8 E 13 22 7 12 - - 4.6
26/01:00pm 25.9 28.3 24.3 91 1.1 E 19 30 10 16 - - 4.0
26/12:30pm 27.0 31.8 24.5 86 1.7 S 7 9 4 5 - - 4.0
26/12:00pm 26.6 31.4 24.4 88 1.5 S 7 11 4 6 - - 4.0
26/11:30am 25.8 29.7 24.2 91 1.1 S 11 15 6 8 - - 3.8
26/11:00am 25.6 30.4 24.2 92 1.0 SW 6 9 3 5 - - 3.6
26/10:30am 24.6 29.9 23.7 95 0.6 SW 2 4 1 2 - - 3.2
26/10:00am 25.0 30.8 24.5 97 0.3 SW 2 6 1 3 - - 2.0
26/09:30am 24.6 29.2 24.1 97 0.3 SW 7 13 4 7 - - 1.6
26/09:00am 24.1 28.4 23.6 97 0.3 WSW 7 11 4 6 - - 146.8
26/08:30am 23.9 28.1 23.4 97 0.3 WSW 7 9 4 5 - - 143.2
26/08:00am 23.7 29.1 23.2 97 0.3 CALM 0 0 0 0 - - 137.8
26/07:30am 23.6 28.5 23.1 97 0.3 WSW 2 4 1 2 - - 124.8
26/07:00am 24.0 27.8 23.5 97 0.3 W 9 13 5 7 - - 112.8
26/06:30am 24.2 28.5 23.7 97 0.3 SSW 7 13 4 7 - - 103.0
26/06:00am 24.1 27.9 23.4 96 0.5 SSW 9 13 5 7 - - 102.0
26/05:30am 24.3 28.7 23.8 97 0.3 SW 7 11 4 6 - - 101.8
26/05:00am 24.2 28.5 23.7 97 0.3 WSW 7 9 4 5 - - 101.6
26/04:30am 24.1 28.6 23.6 97 0.3 W 6 9 3 5 - - 101.6
26/04:00am 24.6 29.4 24.1 97 0.3 W 6 7 3 4 - - 100.2
26/03:30am 24.6 29.2 24.1 97 0.3 W 7 11 4 6 - - 98.4
26/03:00am 24.7 29.3 24.2 97 0.3 WSW 7 13 4 7 - - 94.0
26/02:30am 24.5 29.0 24.0 97 0.3 SSW 7 11 4 6 - - 93.6
26/02:00am 24.6 30.1 24.1 97 0.3 SSW 2 6 1 3 - - 89.4
26/01:30am 24.6 29.4 24.1 97 0.3 SSW 6 9 3 5 - - 89.0
26/01:00am 24.6 29.4 24.1 97 0.3 SE 6 7 3 4 - - 85.2
26/12:30am 24.4 29.1 23.9 97 0.3 SE 6 6 3 3 - - 84.4
26/12:00am 24.5 30.0 24.0 97 0.3 SE 2 6 1 3 - - 84.0
 
Date/Time
EST
Temp
°C
App
Temp
°C
Dew
Point
°C
Rel
Hum
%
Delta-T
°C
Wind Press
QNH
hPa
Press
MSL
hPa
Rain since
9am
mm
Dir  Spd
km/h
Gust
km/h
Spd
kts
Gust
kts
25/11:30pm 24.4 29.4 23.9 97 0.3 SE 4 6 2 3 - - 83.8
25/11:00pm 24.4 29.4 23.9 97 0.3 SE 4 6 2 3 - - 83.8

Other formats

Comma delimited format used in spreadsheet applications
http://www.bom.gov.au/fwo/IDQ60801/IDQ60801.94352.axf

JavaScript Object Notation format (JSON) in row-major order
http://www.bom.gov.au/fwo/IDQ60801/IDQ60801.94352.json

Data quality

Most of these data are generated automatically and are frequently updated. Quality checks on data are not normally performed. It is possible for incorrect values to appear. Refer to information at About Latest Weather Observations and please check the disclaimer before using these data.